createdAt,value
2018-11-25T00:00:36.883Z,18.2
2018-11-25T00:01:36.606Z,18.2
2018-11-25T00:02:36.586Z,18.39
2018-11-25T00:03:36.826Z,18.1
2018-11-25T00:04:36.807Z,18.39
2018-11-25T00:05:36.779Z,18.29
2018-11-25T00:06:36.765Z,18.29
2018-11-25T00:07:37.350Z,18.29
2018-11-25T00:08:36.728Z,18.2
2018-11-25T00:09:36.722Z,18.01
2018-11-25T00:10:36.428Z,18.1
2018-11-25T00:11:36.410Z,18.1
2018-11-25T00:12:36.385Z,18.1
2018-11-25T00:13:36.618Z,18.1
2018-11-25T00:14:36.345Z,18.2
2018-11-25T00:15:36.334Z,18.2
2018-11-25T00:16:36.305Z,18.1
2018-11-25T00:17:36.537Z,18.2
2018-11-25T00:18:36.526Z,18.1
2018-11-25T00:19:36.503Z,18.29
2018-11-25T00:20:36.476Z,18.1
2018-11-25T00:21:36.493Z,18.1
2018-11-25T00:22:36.438Z,18.1
2018-11-25T00:23:36.448Z,18.2
2018-11-25T00:24:36.400Z,18.2
2018-11-25T00:25:36.373Z,18.1
2018-11-25T00:26:36.352Z,18.2
2018-11-25T00:27:36.333Z,18.29
2018-11-25T00:28:36.320Z,17.91
2018-11-25T00:29:36.294Z,18.1
2018-11-25T00:30:36.267Z,18.29
2018-11-25T00:31:36.262Z,18.2
2018-11-25T00:32:36.231Z,18.2
2018-11-25T00:33:36.214Z,18.2
2018-11-25T00:34:36.190Z,18.39
2018-11-25T00:35:36.172Z,18.2
2018-11-25T00:36:35.899Z,18.48
2018-11-25T00:37:36.131Z,17.91
2018-11-25T00:38:36.114Z,18.2
2018-11-25T00:39:35.838Z,18.39
2018-11-25T00:40:36.068Z,18.1
2018-11-25T00:41:36.056Z,18.2
2018-11-25T00:42:36.038Z,18.2
2018-11-25T00:43:36.030Z,18.01
2018-11-25T00:44:35.991Z,18.2
2018-11-25T00:45:36.014Z,18.2
2018-11-25T00:46:35.949Z,18.01
2018-11-25T00:47:35.941Z,18.01
2018-11-25T00:48:35.905Z,18.01
2018-11-25T00:49:35.646Z,18.01
2018-11-25T00:50:35.867Z,18.1
2018-11-25T00:51:35.851Z,18.2
2018-11-25T00:52:35.575Z,18.1
2018-11-25T00:53:35.804Z,18.1
2018-11-25T00:54:35.786Z,18.1
2018-11-25T00:55:35.769Z,18.2
2018-11-25T00:56:35.748Z,18.1
2018-11-25T00:57:35.727Z,18.48
2018-11-25T00:58:35.455Z,18.48
2018-11-25T00:59:35.713Z,18.2
2018-11-25T01:00:35.661Z,18.2
2018-11-25T01:01:35.394Z,18.2
2018-11-25T01:02:35.366Z,18.2
2018-11-25T01:03:35.611Z,18.58
2018-11-25T01:04:35.595Z,18.39
2018-11-25T01:05:35.563Z,18.29
2018-11-25T01:06:35.546Z,18.39
2018-11-25T01:07:35.272Z,18.39
2018-11-25T01:08:35.505Z,18.39
2018-11-25T01:09:35.476Z,18.1
2018-11-25T01:10:35.204Z,18.29
2018-11-25T01:11:35.639Z,18.29
2018-11-25T01:12:35.427Z,18.2
2018-11-25T01:13:35.398Z,18.39
2018-11-25T01:14:35.378Z,18.1
2018-11-25T01:15:35.105Z,18.29
2018-11-25T01:16:35.334Z,18.48
2018-11-25T01:17:35.329Z,18.1
2018-11-25T01:18:35.055Z,18.1
2018-11-25T01:19:35.277Z,18.1
2018-11-25T01:20:34.998Z,18.29
2018-11-25T01:21:35.231Z,18.58
2018-11-25T01:22:35.234Z,18.39
2018-11-25T01:23:35.196Z,18.29
2018-11-25T01:24:35.168Z,18.39
2018-11-25T01:25:35.152Z,18.29
2018-11-25T01:26:35.131Z,18.39
2018-11-25T01:27:35.110Z,18.39
2018-11-25T01:28:35.139Z,18.39
2018-11-25T01:29:35.073Z,18.39
2018-11-25T01:30:34.803Z,18.39
2018-11-25T01:31:35.028Z,18.29
2018-11-25T01:32:35.008Z,18.39
2018-11-25T01:33:35.006Z,18.48
2018-11-25T01:34:34.711Z,18.29
2018-11-25T01:35:34.948Z,18.58
2018-11-25T01:36:34.668Z,18.39
2018-11-25T01:37:34.652Z,18.29
2018-11-25T01:38:34.881Z,18.39
2018-11-25T01:39:34.610Z,18.48
2018-11-25T01:40:34.853Z,18.39
2018-11-25T01:41:34.822Z,18.29
2018-11-25T01:42:34.550Z,18.39
2018-11-25T01:43:34.809Z,18.48
2018-11-25T01:44:34.761Z,18.48
2018-11-25T01:45:34.739Z,18.58
2018-11-25T01:46:34.720Z,18.29
2018-11-25T01:47:34.696Z,18.48
2018-11-25T01:48:34.677Z,18.29
2018-11-25T01:49:34.659Z,18.29
2018-11-25T01:50:34.380Z,18.29
2018-11-25T01:51:34.621Z,18.48
2018-11-25T01:52:34.598Z,18.29
2018-11-25T01:53:34.324Z,18.48
2018-11-25T01:54:34.299Z,18.29
2018-11-25T01:55:34.535Z,18.1
2018-11-25T01:56:34.567Z,18.01
2018-11-25T01:57:34.243Z,18.2
2018-11-25T01:58:34.474Z,18.01
2018-11-25T01:59:34.197Z,18.01
2018-11-25T02:00:34.178Z,18.1
2018-11-25T02:01:34.165Z,18.1
2018-11-25T02:02:34.394Z,18.2
2018-11-25T02:03:34.372Z,18.2
2018-11-25T02:04:34.092Z,18.2
2018-11-25T02:05:34.330Z,18.2
2018-11-25T02:06:34.062Z,18.2
2018-11-25T02:07:34.292Z,18.29
2018-11-25T02:08:34.265Z,18.39
2018-11-25T02:09:33.995Z,18.29
2018-11-25T02:10:34.228Z,18.29
2018-11-25T02:11:34.206Z,18.39
2018-11-25T02:12:34.186Z,18.58
2018-11-25T02:13:34.163Z,18.48
2018-11-25T02:14:34.147Z,18.29
2018-11-25T02:15:34.124Z,18.29
2018-11-25T02:16:33.854Z,18.39
2018-11-25T02:17:33.839Z,18.2
2018-11-25T02:18:34.064Z,18.29
2018-11-25T02:19:34.038Z,18.29
2018-11-25T02:20:34.027Z,18.29
2018-11-25T02:21:34.010Z,18.29
2018-11-25T02:22:33.988Z,18.48
2018-11-25T02:23:33.704Z,18.2
2018-11-25T02:24:33.940Z,18.1
2018-11-25T02:25:33.923Z,18.39
2018-11-25T02:26:33.644Z,18.29
2018-11-25T02:27:33.625Z,18.29
2018-11-25T02:28:33.860Z,18.2
2018-11-25T02:29:33.837Z,18.48
2018-11-25T02:30:33.571Z,18.39
2018-11-25T02:31:33.821Z,18.29
2018-11-25T02:32:33.789Z,18.29
2018-11-25T02:33:33.750Z,18.29
2018-11-25T02:34:33.733Z,18.29
2018-11-25T02:35:33.457Z,18.39
2018-11-25T02:36:33.690Z,18.29
2018-11-25T02:37:33.671Z,18.39
2018-11-25T02:38:33.672Z,18.01
2018-11-25T02:39:33.386Z,18.29
2018-11-25T02:40:33.609Z,18.2
2018-11-25T02:41:33.591Z,18.2
2018-11-25T02:42:33.580Z,17.91
2018-11-25T02:43:33.294Z,17.91
2018-11-25T02:44:33.305Z,17.91
2018-11-25T02:45:33.250Z,18.01
2018-11-25T02:46:33.504Z,18.29
2018-11-25T02:47:33.467Z,18.39
2018-11-25T02:48:33.191Z,18.01
2018-11-25T02:49:33.424Z,18.2
2018-11-25T02:50:33.429Z,18.1
2018-11-25T02:51:33.385Z,18.01
2018-11-25T02:52:33.107Z,18.01
2018-11-25T02:53:33.351Z,18.2
2018-11-25T02:54:33.321Z,18.1
2018-11-25T02:55:33.310Z,18.1
2018-11-25T02:56:33.049Z,18.1
2018-11-25T02:57:33.273Z,17.91
2018-11-25T02:58:33.238Z,18.1
2018-11-25T02:59:33.216Z,18.2
2018-11-25T03:00:33.204Z,18.2
2018-11-25T03:01:33.178Z,18.29
2018-11-25T03:02:33.157Z,18.58
2018-11-25T03:03:32.887Z,18.39
2018-11-25T03:04:33.115Z,18.29
2018-11-25T03:05:33.104Z,18.29
2018-11-25T03:06:33.082Z,18.01
2018-11-25T03:07:33.053Z,18.1
2018-11-25T03:08:33.037Z,18.39
2018-11-25T03:09:33.018Z,18.01
2018-11-25T03:10:32.736Z,18.01
2018-11-25T03:11:32.924Z,18.2
2018-11-25T03:12:32.707Z,18.39
2018-11-25T03:13:32.677Z,18.29
2018-11-25T03:14:32.915Z,18.29
2018-11-25T03:15:32.900Z,18.29
2018-11-25T03:16:32.622Z,18.2
2018-11-25T03:17:32.850Z,18.01
2018-11-25T03:18:32.836Z,18.1
2018-11-25T03:19:32.812Z,18.01
2018-11-25T03:20:32.538Z,18.29
2018-11-25T03:21:32.770Z,18.1
2018-11-25T03:22:32.494Z,18.01
2018-11-25T03:23:32.737Z,18.39
2018-11-25T03:24:32.708Z,18.39
2018-11-25T03:25:32.683Z,18.29
2018-11-25T03:26:32.666Z,18.29
2018-11-25T03:27:32.697Z,18.39
2018-11-25T03:28:32.372Z,18.2
2018-11-25T03:29:32.619Z,18.2
2018-11-25T03:30:32.587Z,18.29
2018-11-25T03:31:32.562Z,18.01
2018-11-25T03:32:32.545Z,18.1
2018-11-25T03:33:32.530Z,18.39
2018-11-25T03:34:32.503Z,18.48
2018-11-25T03:35:32.497Z,18.48
2018-11-25T03:36:32.472Z,18.39
2018-11-25T03:37:32.440Z,18.2
2018-11-25T03:38:32.422Z,18.2
2018-11-25T03:39:32.402Z,18.39
2018-11-25T03:40:32.379Z,18.29
2018-11-25T03:41:32.361Z,18.29
2018-11-25T03:42:32.140Z,18.1
2018-11-25T03:43:32.331Z,18.29
2018-11-25T03:44:32.305Z,18.29
2018-11-25T03:45:32.274Z,18.2
2018-11-25T03:46:32.253Z,18.29
2018-11-25T03:47:32.234Z,18.29
2018-11-25T03:48:32.223Z,18.39
2018-11-25T03:49:32.194Z,18.2
2018-11-25T03:50:31.916Z,18.2
2018-11-25T03:51:32.154Z,18.29
2018-11-25T03:52:32.136Z,18.48
2018-11-25T03:53:31.856Z,18.1
2018-11-25T03:54:32.090Z,18.39
2018-11-25T03:55:31.823Z,18.2
2018-11-25T03:56:32.046Z,18.1
2018-11-25T03:57:32.040Z,18.2
2018-11-25T03:58:32.003Z,18.1
2018-11-25T03:59:31.739Z,18.01
2018-11-25T04:00:31.719Z,18.01
2018-11-25T04:01:31.691Z,18.1
2018-11-25T04:02:31.930Z,18.1
2018-11-25T04:03:31.907Z,18.1
2018-11-25T04:04:31.889Z,18.2
2018-11-25T04:05:31.617Z,18.2
2018-11-25T04:06:31.848Z,18.1
2018-11-25T04:07:31.576Z,18.1
2018-11-25T04:08:31.807Z,18.01
2018-11-25T04:09:31.787Z,18.1
2018-11-25T04:10:31.761Z,18.1
2018-11-25T04:11:31.741Z,18.1
2018-11-25T04:12:31.720Z,18.1
2018-11-25T04:13:31.444Z,18.29
2018-11-25T04:14:31.444Z,18.1
2018-11-25T04:15:31.660Z,18.1
2018-11-25T04:16:31.646Z,18.01
2018-11-25T04:17:31.623Z,18.01
2018-11-25T04:18:31.622Z,18.1
2018-11-25T04:19:31.579Z,18.2
2018-11-25T04:20:31.304Z,18.1
2018-11-25T04:21:31.542Z,18.01
2018-11-25T04:22:31.518Z,18.1
2018-11-25T04:23:31.236Z,18.1
2018-11-25T04:24:31.475Z,17.91
2018-11-25T04:25:31.204Z,18.2
2018-11-25T04:26:31.454Z,18.1
2018-11-25T04:27:32.317Z,18.1
2018-11-25T04:28:31.396Z,18.1
2018-11-25T04:29:31.371Z,18.1
2018-11-25T04:30:31.353Z,18.2
2018-11-25T04:31:31.327Z,18.2
2018-11-25T04:32:31.312Z,18.1
2018-11-25T04:33:31.286Z,18.2
2018-11-25T04:34:31.267Z,18.1
2018-11-25T04:35:30.990Z,18.29
2018-11-25T04:36:31.245Z,18.2
2018-11-25T04:37:31.216Z,18.29
2018-11-25T04:38:30.930Z,18.1
2018-11-25T04:39:31.173Z,18.1
2018-11-25T04:40:31.153Z,18.1
2018-11-25T04:41:31.186Z,17.91
2018-11-25T04:42:30.847Z,18.29
2018-11-25T04:43:30.853Z,18.01
2018-11-25T04:44:31.060Z,18.2
2018-11-25T04:45:31.055Z,18.2
2018-11-25T04:46:31.026Z,18.1
2018-11-25T04:47:31.012Z,18.01
2018-11-25T04:48:30.997Z,18.01
2018-11-25T04:49:30.972Z,17.91
2018-11-25T04:50:30.940Z,18.2
2018-11-25T04:51:30.670Z,18.1
2018-11-25T04:52:30.930Z,18.1
2018-11-25T04:53:30.875Z,18.1
2018-11-25T04:54:30.924Z,18.1
2018-11-25T04:55:30.841Z,18.2
2018-11-25T04:56:30.815Z,18.1
2018-11-25T04:57:30.799Z,18.2
2018-11-25T04:58:30.782Z,18.1
2018-11-25T04:59:30.758Z,18.1
2018-11-25T05:00:30.481Z,18.1
2018-11-25T05:01:30.712Z,18.01
2018-11-25T05:02:30.705Z,18.2
2018-11-25T05:03:30.678Z,18.1
2018-11-25T05:04:30.394Z,18.01
2018-11-25T05:05:30.631Z,18.01
2018-11-25T05:06:30.609Z,18.2
2018-11-25T05:07:30.593Z,18.1
2018-11-25T05:08:30.577Z,18.1
2018-11-25T05:09:30.559Z,18.1
2018-11-25T05:10:30.555Z,18.39
2018-11-25T05:11:30.529Z,18.39
2018-11-25T05:12:30.487Z,18.1
2018-11-25T05:13:30.467Z,18.01
2018-11-25T05:14:30.487Z,18.2
2018-11-25T05:15:30.424Z,18.1
2018-11-25T05:16:30.406Z,18.2
2018-11-25T05:17:30.383Z,18.2
2018-11-25T05:18:30.117Z,18.2
2018-11-25T05:19:30.341Z,18.48
2018-11-25T05:20:30.327Z,18.2
2018-11-25T05:21:30.307Z,17.82
2018-11-25T05:22:30.026Z,18.01
2018-11-25T05:23:30.263Z,18.2
2018-11-25T05:24:30.245Z,18.1
2018-11-25T05:25:30.216Z,18.1
2018-11-25T05:26:30.204Z,18.1
2018-11-25T05:27:30.181Z,18.1
2018-11-25T05:28:29.903Z,18.29
2018-11-25T05:29:30.135Z,18.2
2018-11-25T05:30:30.132Z,18.2
2018-11-25T05:31:29.843Z,18.1
2018-11-25T05:32:30.076Z,18.29
2018-11-25T05:33:30.060Z,18.1
2018-11-25T05:34:30.037Z,18.1
2018-11-25T05:35:30.015Z,18.2
2018-11-25T05:36:29.997Z,18.29
2018-11-25T05:37:29.976Z,18.1
2018-11-25T05:38:29.956Z,18.1
2018-11-25T05:39:29.939Z,18.29
2018-11-25T05:40:29.668Z,18.1
2018-11-25T05:41:29.895Z,18.2
2018-11-25T05:42:29.619Z,18.1
2018-11-25T05:43:29.857Z,18.29
2018-11-25T05:44:29.831Z,18.29
2018-11-25T05:45:29.812Z,18.2
2018-11-25T05:46:29.791Z,17.91
2018-11-25T05:47:29.768Z,18.01
2018-11-25T05:48:29.752Z,17.91
2018-11-25T05:49:36.297Z,18.01
2018-11-25T05:50:29.721Z,17.72
2018-11-25T05:51:29.696Z,18.01
2018-11-25T05:52:29.411Z,17.91
2018-11-25T05:53:29.655Z,17.54
2018-11-25T05:54:29.376Z,18.01
2018-11-25T05:55:29.604Z,18.01
2018-11-25T05:56:29.583Z,17.82
2018-11-25T05:57:29.314Z,17.54
2018-11-25T05:58:29.543Z,17.54
2018-11-25T05:59:29.558Z,18.01
2018-11-25T06:00:29.507Z,17.54
2018-11-25T06:01:29.479Z,17.72
2018-11-25T06:02:29.465Z,17.54
2018-11-25T06:03:29.440Z,17.72
2018-11-25T06:04:29.420Z,17.54
2018-11-25T06:05:29.400Z,17.54
2018-11-25T06:06:29.380Z,18.01
2018-11-25T06:07:29.106Z,17.72
2018-11-25T06:08:29.093Z,18.01
2018-11-25T06:09:29.320Z,18.01
2018-11-25T06:10:29.307Z,18.01
2018-11-25T06:11:29.280Z,17.72
2018-11-25T06:12:29.012Z,18.01
2018-11-25T06:13:29.243Z,18.01
2018-11-25T06:14:29.254Z,18.01
2018-11-25T06:15:29.200Z,18.01
2018-11-25T06:16:29.180Z,17.54
2018-11-25T06:17:29.167Z,17.72
2018-11-25T06:18:29.136Z,17.72
2018-11-25T06:19:28.860Z,17.63
2018-11-25T06:20:29.090Z,17.72
2018-11-25T06:21:29.106Z,17.72
2018-11-25T06:22:29.055Z,17.63
2018-11-25T06:23:29.028Z,17.63
2018-11-25T06:24:29.015Z,17.72
2018-11-25T06:25:28.997Z,17.72
2018-11-25T06:26:28.988Z,17.72
2018-11-25T06:27:28.949Z,17.72
2018-11-25T06:28:28.927Z,17.72
2018-11-25T06:29:28.908Z,17.72
2018-11-25T06:30:28.885Z,17.72
2018-11-25T06:31:28.617Z,17.72
2018-11-25T06:32:28.851Z,17.54
2018-11-25T06:33:28.834Z,17.54
2018-11-25T06:34:28.809Z,17.63
2018-11-25T06:35:28.787Z,18.01
2018-11-25T06:36:28.769Z,17.54
2018-11-25T06:37:28.741Z,17.54
2018-11-25T06:38:28.724Z,17.54
2018-11-25T06:39:28.700Z,18.01
2018-11-25T06:40:28.712Z,17.72
2018-11-25T06:41:34.019Z,18.01
2018-11-25T06:42:28.644Z,18.2
2018-11-25T06:43:28.367Z,18.1
2018-11-25T06:44:28.604Z,17.91
2018-11-25T06:45:28.327Z,18.1
2018-11-25T06:46:28.560Z,18.01
2018-11-25T06:47:28.566Z,18.01
2018-11-25T06:48:28.521Z,18.1
2018-11-25T06:49:28.497Z,18.48
2018-11-25T06:50:28.478Z,18.29
2018-11-25T06:51:28.478Z,18.2
2018-11-25T06:52:28.435Z,18.2
2018-11-25T06:53:28.163Z,18.01
2018-11-25T06:54:28.398Z,18.2
2018-11-25T06:55:28.373Z,18.1
2018-11-25T06:56:29.973Z,18.1
2018-11-25T06:57:28.331Z,18.2
2018-11-25T06:58:28.312Z,18.2
2018-11-25T06:59:28.293Z,18.01
2018-11-25T07:00:28.290Z,18.29
2018-11-25T07:01:28.256Z,18.29
2018-11-25T07:02:28.229Z,18.2
2018-11-25T07:03:27.958Z,18.2
2018-11-25T07:04:27.934Z,18.39
2018-11-25T07:05:28.176Z,18.29
2018-11-25T07:06:28.220Z,18.39
2018-11-25T07:07:27.875Z,18.39
2018-11-25T07:08:28.108Z,18.2
2018-11-25T07:09:27.838Z,18.29
2018-11-25T07:10:28.083Z,18.39
2018-11-25T07:11:27.791Z,18.29
2018-11-25T07:12:28.225Z,18.48
2018-11-25T07:13:28.022Z,18.39
2018-11-25T07:14:27.985Z,18.48
2018-11-25T07:15:27.967Z,18.48
2018-11-25T07:16:27.942Z,18.29
2018-11-25T07:17:27.926Z,18.29
2018-11-25T07:18:27.913Z,18.29
2018-11-25T07:19:27.882Z,18.2
2018-11-25T07:20:27.866Z,18.2
2018-11-25T07:21:27.605Z,18.29
2018-11-25T07:22:27.818Z,18.29
2018-11-25T07:23:27.548Z,18.2
2018-11-25T07:24:27.780Z,18.2
2018-11-25T07:25:27.759Z,18.2
2018-11-25T07:26:27.739Z,18.2
2018-11-25T07:27:27.717Z,18.1
2018-11-25T07:28:27.696Z,18.1
2018-11-25T07:29:27.423Z,18.2
2018-11-25T07:30:27.663Z,18.01
2018-11-25T07:31:27.631Z,18.39
2018-11-25T07:32:27.613Z,18.29
2018-11-25T07:33:27.336Z,18.29
2018-11-25T07:34:27.573Z,18.39
2018-11-25T07:35:27.550Z,18.29
2018-11-25T07:36:27.272Z,18.2
2018-11-25T07:37:27.515Z,18.2
2018-11-25T07:38:27.485Z,18.2
2018-11-25T07:39:27.464Z,18.2
2018-11-25T07:40:27.506Z,18.2
2018-11-25T07:41:27.427Z,18.29
2018-11-25T07:42:27.411Z,18.01
2018-11-25T07:43:27.390Z,18.2
2018-11-25T07:44:27.391Z,18.2
2018-11-25T07:45:33.007Z,18.2
2018-11-25T07:46:27.067Z,18.29
2018-11-25T07:47:27.303Z,18.2
2018-11-25T07:48:27.033Z,18.29
2018-11-25T07:49:27.261Z,18.29
2018-11-25T07:50:27.236Z,18.39
2018-11-25T07:51:26.970Z,18.2
2018-11-25T07:52:27.207Z,18.29
2018-11-25T07:53:26.920Z,18.39
2018-11-25T07:54:26.904Z,18.39
2018-11-25T07:55:26.884Z,18.2
2018-11-25T07:56:27.113Z,18.01
2018-11-25T07:57:26.840Z,18.1
2018-11-25T07:58:26.821Z,18.29
2018-11-25T07:59:27.053Z,18.39
2018-11-25T08:00:27.046Z,18.1
2018-11-25T08:01:27.025Z,18.2
2018-11-25T08:02:27.795Z,18.1
2018-11-25T08:03:26.968Z,18.2
2018-11-25T08:04:26.955Z,18.1
2018-11-25T08:05:26.680Z,18.1
2018-11-25T08:06:26.652Z,18.2
2018-11-25T08:07:26.630Z,18.2
2018-11-25T08:08:26.865Z,18.1
2018-11-25T08:09:26.840Z,18.1
2018-11-25T08:10:26.820Z,18.1
2018-11-25T08:11:26.802Z,18.1
2018-11-25T08:12:26.791Z,18.29
2018-11-25T08:13:26.508Z,18.29
2018-11-25T08:14:26.747Z,18.1
2018-11-25T08:15:26.466Z,18.1
2018-11-25T08:16:26.699Z,18.2
2018-11-25T08:17:26.685Z,18.01
2018-11-25T08:18:26.662Z,18.01
2018-11-25T08:19:26.645Z,18.1
2018-11-25T08:20:26.368Z,18.01
2018-11-25T08:21:26.349Z,18.1
2018-11-25T08:22:26.577Z,18.2
2018-11-25T08:23:26.301Z,17.91
2018-11-25T08:24:26.536Z,17.63
2018-11-25T08:25:26.516Z,18.01
2018-11-25T08:26:26.502Z,17.91
2018-11-25T08:27:26.507Z,18.01
2018-11-25T08:28:26.504Z,17.54
2018-11-25T08:29:26.430Z,17.72
2018-11-25T08:30:26.413Z,17.63
2018-11-25T08:31:26.142Z,17.72
2018-11-25T08:32:26.375Z,17.82
2018-11-25T08:33:26.378Z,17.82
2018-11-25T08:34:26.353Z,17.72
2018-11-25T08:35:26.075Z,17.63
2018-11-25T08:36:26.035Z,17.63
2018-11-25T08:37:26.014Z,17.72
2018-11-25T08:38:26.259Z,17.63
2018-11-25T08:39:26.245Z,17.82
2018-11-25T08:40:26.244Z,17.54
2018-11-25T08:41:26.185Z,17.72
2018-11-25T08:42:25.939Z,17.54
2018-11-25T08:43:26.147Z,17.82
2018-11-25T08:44:25.882Z,17.82
2018-11-25T08:45:25.861Z,17.63
2018-11-25T08:46:26.125Z,17.72
2018-11-25T08:47:26.103Z,17.82
2018-11-25T08:48:26.102Z,17.63
2018-11-25T08:49:26.032Z,17.82
2018-11-25T08:50:25.997Z,17.72
2018-11-25T08:51:25.990Z,17.82
2018-11-25T08:52:25.708Z,17.72
2018-11-25T08:53:25.938Z,17.54
2018-11-25T08:54:25.912Z,17.72
2018-11-25T08:55:25.892Z,17.72
2018-11-25T08:56:25.890Z,17.72
2018-11-25T08:57:25.600Z,17.72
2018-11-25T08:58:25.832Z,17.54
2018-11-25T08:59:25.810Z,17.63
2018-11-25T09:00:27.040Z,17.72
2018-11-25T09:01:25.512Z,17.72
2018-11-25T09:02:25.493Z,17.72
2018-11-25T09:03:25.475Z,17.44
2018-11-25T09:04:25.703Z,17.44
2018-11-25T09:05:25.695Z,17.72
2018-11-25T09:06:25.674Z,17.63
2018-11-25T09:07:25.650Z,17.63
2018-11-25T09:08:25.373Z,17.63
2018-11-25T09:09:25.608Z,17.72
2018-11-25T09:10:25.589Z,17.63
2018-11-25T09:11:25.567Z,17.63
2018-11-25T09:12:25.743Z,17.82
2018-11-25T09:13:25.276Z,17.73
2018-11-25T09:14:25.245Z,17.73
2018-11-25T09:15:25.478Z,17.54
2018-11-25T09:16:25.470Z,17.54
2018-11-25T09:17:25.441Z,17.72
2018-11-25T09:18:25.329Z,17.82
2018-11-25T09:19:25.397Z,17.63
2018-11-25T09:20:25.127Z,17.64
2018-11-25T09:21:25.102Z,17.73
2018-11-25T09:22:25.358Z,17.64
2018-11-25T09:23:25.317Z,17.92
2018-11-25T09:24:25.042Z,17.83
2018-11-25T09:25:25.023Z,17.91
2018-11-25T09:26:25.259Z,17.63
2018-11-25T09:27:24.979Z,17.63
2018-11-25T09:28:25.346Z,17.63
2018-11-25T09:29:25.194Z,17.63
2018-11-25T09:30:24.921Z,17.54
2018-11-25T09:31:25.164Z,17.72
2018-11-25T09:32:25.379Z,17.73
2018-11-25T09:33:25.127Z,17.64
2018-11-25T09:34:25.093Z,17.64
2018-11-25T09:35:25.102Z,17.63
2018-11-25T09:36:25.051Z,17.91
2018-11-25T09:37:25.034Z,17.72
2018-11-25T09:38:24.757Z,17.83
2018-11-25T09:39:24.998Z,17.92
2018-11-25T09:40:24.969Z,17.54
2018-11-25T09:41:24.693Z,17.54
2018-11-25T09:42:24.985Z,17.54
2018-11-25T09:43:24.910Z,17.73
2018-11-25T09:44:24.887Z,17.45
2018-11-25T09:45:24.867Z,17.64
2018-11-25T09:46:24.591Z,17.64
2018-11-25T09:47:24.824Z,17.64
2018-11-25T09:48:24.561Z,17.64
2018-11-25T09:49:24.788Z,17.54
2018-11-25T09:50:24.777Z,17.73
2018-11-25T09:51:24.742Z,17.64
2018-11-25T09:52:24.719Z,17.73
2018-11-25T09:53:24.707Z,17.83
2018-11-25T09:54:24.431Z,18.4
2018-11-25T09:55:24.411Z,18.3
2018-11-25T09:56:24.394Z,18.3
2018-11-25T09:57:24.625Z,18.29
2018-11-25T09:58:27.975Z,18.4
2018-11-25T09:59:24.582Z,18.21
2018-11-25T10:00:24.559Z,18.21
2018-11-25T10:01:24.547Z,18.3
2018-11-25T10:02:24.518Z,18.11
2018-11-25T10:03:24.509Z,18.11
2018-11-25T10:04:24.490Z,18.3
2018-11-25T10:05:24.460Z,18.29
2018-11-25T10:06:24.442Z,18.3
2018-11-25T10:07:24.416Z,18.3
2018-11-25T10:08:24.147Z,18.3
2018-11-25T10:09:24.127Z,17.92
2018-11-25T10:10:24.127Z,18.11
2018-11-25T10:11:24.343Z,18.02
2018-11-25T10:12:24.066Z,18.11
2018-11-25T10:13:24.374Z,18.3
2018-11-25T10:14:24.023Z,18.4
2018-11-25T10:15:24.005Z,18.21
2018-11-25T10:16:24.250Z,18.4
2018-11-25T10:17:24.221Z,18.4
2018-11-25T10:18:24.194Z,18.3
2018-11-25T10:19:23.931Z,18.3
2018-11-25T10:20:24.154Z,18.11
2018-11-25T10:21:24.141Z,18.21
2018-11-25T10:22:24.115Z,18.21
2018-11-25T10:23:23.900Z,18.3
2018-11-25T10:24:23.837Z,18.4
2018-11-25T10:25:24.074Z,18.4
2018-11-25T10:26:23.779Z,17.92
2018-11-25T10:27:24.015Z,18.02
2018-11-25T10:28:23.993Z,17.92
2018-11-25T10:29:23.723Z,18.4
2018-11-25T10:30:23.959Z,18.68
2018-11-25T10:31:23.948Z,18.59
2018-11-25T10:32:23.916Z,18.49
2018-11-25T10:33:23.896Z,18.59
2018-11-25T10:34:23.615Z,18.77
2018-11-25T10:35:23.865Z,18.68
2018-11-25T10:36:23.834Z,18.59
2018-11-25T10:37:23.827Z,18.59
2018-11-25T10:38:23.531Z,19.15
2018-11-25T10:39:23.772Z,19.06
2018-11-25T10:40:23.760Z,19.06
2018-11-25T10:41:23.485Z,18.96
2018-11-25T10:42:23.715Z,19.15
2018-11-25T10:43:23.688Z,19.15
2018-11-25T10:44:23.665Z,19.25
2018-11-25T10:45:23.649Z,19.06
2018-11-25T10:46:23.625Z,18.87
2018-11-25T10:47:23.613Z,18.77
2018-11-25T10:48:23.584Z,18.96
2018-11-25T10:49:24.684Z,18.68
2018-11-25T10:50:23.553Z,18.68
2018-11-25T10:51:23.526Z,18.68
2018-11-25T10:52:23.511Z,19.25
2018-11-25T10:53:23.493Z,19.25
2018-11-25T10:54:23.212Z,19.15
2018-11-25T10:55:23.470Z,19.15
2018-11-25T10:56:23.452Z,19.25
2018-11-25T10:57:23.418Z,19.15
2018-11-25T10:58:23.128Z,19.06
2018-11-25T10:59:23.366Z,19.34
2018-11-25T11:00:23.346Z,19.25
2018-11-25T11:01:24.001Z,19.34
2018-11-25T11:02:23.051Z,19.44
2018-11-25T11:03:23.283Z,19.34
2018-11-25T11:04:23.262Z,19.82
2018-11-25T11:05:22.989Z,19.54
2018-11-25T11:06:23.225Z,19.92
2018-11-25T11:07:23.196Z,19.54
2018-11-25T11:08:23.180Z,19.82
2018-11-25T11:09:23.161Z,19.73
2018-11-25T11:10:23.148Z,19.82
2018-11-25T11:11:23.125Z,19.73
2018-11-25T11:12:23.047Z,19.73
2018-11-25T11:13:23.124Z,19.44
2018-11-25T11:14:23.109Z,19.34
2018-11-25T11:15:23.035Z,19.44
2018-11-25T11:16:23.016Z,19.73
2018-11-25T11:17:22.992Z,19.73
2018-11-25T11:18:22.975Z,20.01
2018-11-25T11:19:22.699Z,20.29
2018-11-25T11:20:22.933Z,19.92
2018-11-25T11:21:22.911Z,20.1
2018-11-25T11:22:22.897Z,19.63
2018-11-25T11:23:22.890Z,19.44
2018-11-25T11:24:22.851Z,19.44
2018-11-25T11:25:22.577Z,19.44
2018-11-25T11:26:22.569Z,19.34
2018-11-25T11:27:22.593Z,19.44
2018-11-25T11:28:22.781Z,19.34
2018-11-25T11:29:22.750Z,19.34
2018-11-25T11:30:22.775Z,19.15
2018-11-25T11:31:22.716Z,19.25
2018-11-25T11:32:22.692Z,19.44
2018-11-25T11:33:22.423Z,19.34
2018-11-25T11:34:22.398Z,19.44
2018-11-25T11:35:22.416Z,19.54
2018-11-25T11:36:22.609Z,19.82
2018-11-25T11:37:22.587Z,19.73
2018-11-25T11:38:22.570Z,19.92
2018-11-25T11:39:22.546Z,19.73
2018-11-25T11:40:22.271Z,19.63
2018-11-25T11:41:22.510Z,20.01
2018-11-25T11:42:28.465Z,19.82
2018-11-25T11:43:22.463Z,19.73
2018-11-25T11:44:22.452Z,19.54
2018-11-25T11:45:22.423Z,19.34
2018-11-25T11:46:22.697Z,19.34
2018-11-25T11:47:22.134Z,19.34
2018-11-25T11:48:22.371Z,19.44
2018-11-25T11:49:22.095Z,19.54
2018-11-25T11:50:22.355Z,19.44
2018-11-25T11:51:28.404Z,19.34
2018-11-25T11:52:22.280Z,19.34
2018-11-25T11:53:22.264Z,19.34
2018-11-25T11:54:22.243Z,18.96
2018-11-25T11:55:22.218Z,19.25
2018-11-25T11:56:21.945Z,19.25
2018-11-25T11:57:22.179Z,19.15
2018-11-25T11:58:22.157Z,19.25
2018-11-25T11:59:22.146Z,19.34
2018-11-25T12:00:22.122Z,19.25
2018-11-25T12:01:22.103Z,19.63
2018-11-25T12:02:22.077Z,18.96
2018-11-25T12:03:28.689Z,19.34
2018-11-25T12:04:22.037Z,19.34
2018-11-25T12:05:22.018Z,19.34
2018-11-25T12:06:22.001Z,19.73
2018-11-25T12:07:21.722Z,19.34
2018-11-25T12:08:21.700Z,19.25
2018-11-25T12:09:21.679Z,19.25
2018-11-25T12:10:21.932Z,19.34
2018-11-25T12:11:21.900Z,19.34
2018-11-25T12:12:21.880Z,19.54
2018-11-25T12:13:21.862Z,19.34
2018-11-25T12:14:21.836Z,19.44
2018-11-25T12:15:21.814Z,19.44
2018-11-25T12:16:21.797Z,19.63
2018-11-25T12:17:21.773Z,19.25
2018-11-25T12:18:21.749Z,19.44
2018-11-25T12:19:21.745Z,19.44
2018-11-25T12:20:23.681Z,19.34
2018-11-25T12:21:21.686Z,19.15
2018-11-25T12:22:21.673Z,19.25
2018-11-25T12:23:21.647Z,18.96
2018-11-25T12:24:21.628Z,19.54
2018-11-25T12:25:21.608Z,19.34
2018-11-25T12:26:21.594Z,19.15
2018-11-25T12:27:21.310Z,19.06
2018-11-25T12:28:21.549Z,19.15
2018-11-25T12:29:21.537Z,19.34
2018-11-25T12:30:21.508Z,19.15
2018-11-25T12:31:21.489Z,19.15
2018-11-25T12:32:21.217Z,19.15
2018-11-25T12:33:21.188Z,18.96
2018-11-25T12:34:21.171Z,18.96
2018-11-25T12:35:21.158Z,19.25
2018-11-25T12:36:21.383Z,18.87
2018-11-25T12:37:21.361Z,18.96
2018-11-25T12:38:21.088Z,18.87
2018-11-25T12:39:21.873Z,19.34
2018-11-25T12:40:21.304Z,19.25
2018-11-25T12:41:21.026Z,18.96
2018-11-25T12:42:21.275Z,19.25
2018-11-25T12:43:21.240Z,19.15
2018-11-25T12:44:20.971Z,19.25
2018-11-25T12:45:21.208Z,19.06
2018-11-25T12:46:21.190Z,19.15
2018-11-25T12:47:21.158Z,19.25
2018-11-25T12:48:21.149Z,19.34
2018-11-25T12:49:21.116Z,19.15
2018-11-25T12:50:20.838Z,19.25
2018-11-25T12:51:20.823Z,19.15
2018-11-25T12:52:21.054Z,19.06
2018-11-25T12:53:20.780Z,19.15
2018-11-25T12:54:21.017Z,19.25
2018-11-25T12:55:21.001Z,19.25
2018-11-25T12:56:20.981Z,18.96
2018-11-25T12:57:20.952Z,19.15
2018-11-25T12:58:20.932Z,19.34
2018-11-25T12:59:20.659Z,19.25
2018-11-25T13:00:20.891Z,19.15